»·PEaware :: N791JR KSNA-KBUR

N791JR :: KSNA-KBUR

FLIGHT INFORMATION

Flight Status: Arrived
Operator: Privately registered:
United States
More flights under this callsign
Pilot: Carson T. (20437)
Aircraft: CESSNA 172 SKYHAWK
(C172)
More flights by this aircraft type
Origin: KSNA John Wayne-Orange Co
United States
Destination: KBUR Bob Hope-Burbank
United States
More flights between these airports :: More routes between these airports
Route: SLI V23 POPPR SMO125 SMO SMO311 SILEX
File this flight plan on PilotEdge
Remarks: I-3 Rating
Altitude:
(Current/Filed)
4,000ft
Speed:
(Current/Filed)
120kts
Departed: 07-Nov-18 12:35 PM
Arrived: 07-Nov-18 01:19 PM
Distance/Time
Traveled:
40nm/0:44
Distance/Time
To Go:
Arrived

Flight Plot

Page will automatically refresh every two minutes.


Map Options




Map Legend


Flown Route
Filed Route
Departure Airport
Arrival Airport
Navaid (VOR, NDB)
Fix

Horizontal Profiles

Position Reports

Time Latitude Longitude Heading Altitude Ground
Speed
07-Nov-18 12:25 33.676028 -117.871112 40 59ft 0kts
07-Nov-18 12:26 33.676028 -117.871112 40 59ft 0kts
07-Nov-18 12:27 33.676028 -117.871112 40 59ft 0kts
07-Nov-18 12:28 33.676028 -117.871112 40 59ft 0kts
07-Nov-18 12:29 33.676028 -117.871112 40 59ft 0kts
07-Nov-18 12:30 33.676028 -117.871112 40 59ft 0kts
07-Nov-18 12:31 33.676028 -117.871112 40 59ft 0kts
07-Nov-18 12:32 33.676028 -117.871112 40 59ft 0kts
07-Nov-18 12:33 33.676051 -117.871071 86 59ft 0kts
07-Nov-18 12:34 33.677268 -117.869326 27 59ft 9kts
07-Nov-18 12:35 33.681075 -117.867085 34 59ft 13kts
07-Nov-18 12:36 33.681182 -117.866368 114 59ft 0kts
07-Nov-18 12:37 33.681182 -117.866368 114 59ft 0kts
07-Nov-18 12:38 33.671364 -117.871278 204 381ft 80kts
07-Nov-18 12:39 33.653238 -117.887199 219 1363ft 84kts
07-Nov-18 12:40 33.633829 -117.906034 220 2060ft 99kts
07-Nov-18 12:41 33.610063 -117.928073 219 2476ft 109kts
07-Nov-18 12:42 33.587808 -117.949372 219 3136ft 98kts
07-Nov-18 12:43 33.565717 -117.969916 219 3663ft 104kts
07-Nov-18 12:44 33.541971 -117.991667 219 4029ft 119kts
07-Nov-18 12:45 33.515180 -118.016301 221 4017ft 119kts
07-Nov-18 12:46 33.527122 -118.038954 349 4021ft 113kts
07-Nov-18 12:47 33.559315 -118.044596 349 4021ft 119kts
07-Nov-18 12:48 33.589942 -118.057632 334 4023ft 119kts
07-Nov-18 12:49 33.620343 -118.072829 334 4024ft 120kts
07-Nov-18 12:50 33.647765 -118.093662 319 4023ft 115kts
07-Nov-18 12:51 33.673297 -118.117606 319 4026ft 119kts
07-Nov-18 12:52 33.698536 -118.142113 316 4026ft 118kts
07-Nov-18 12:53 33.723034 -118.167355 316 4027ft 118kts
07-Nov-18 12:54 33.747748 -118.192581 316 4028ft 118kts
07-Nov-18 12:55 33.772533 -118.217630 317 4029ft 117kts
07-Nov-18 12:56 33.797030 -118.242136 317 4029ft 117kts
07-Nov-18 12:57 33.820981 -118.265833 318 4029ft 117kts
07-Nov-18 12:58 33.845854 -118.290219 317 4030ft 117kts
07-Nov-18 12:59 33.868939 -118.316009 314 4032ft 117kts
07-Nov-18 13:00 33.888996 -118.337759 316 4033ft 117kts
07-Nov-18 13:01 33.917385 -118.366620 318 4033ft 118kts
07-Nov-18 13:02 33.936160 -118.384832 318 4032ft 118kts
07-Nov-18 13:03 33.965397 -118.413620 318 4031ft 118kts
07-Nov-18 13:04 33.986339 -118.434462 317 4031ft 118kts
07-Nov-18 13:05 34.015620 -118.463330 317 4014ft 118kts
07-Nov-18 13:06 34.036745 -118.484179 318 4014ft 118kts
07-Nov-18 13:07 34.062111 -118.517596 308 4029ft 117kts
07-Nov-18 13:08 34.079556 -118.540974 308 4042ft 118kts
07-Nov-18 13:09 34.104778 -118.574664 308 4042ft 118kts
07-Nov-18 13:10 34.122745 -118.599202 308 4041ft 117kts
07-Nov-18 13:11 34.143879 -118.628649 308 4040ft 116kts
07-Nov-18 13:12 34.164160 -118.657330 308 4040ft 116kts
07-Nov-18 13:13 34.188861 -118.659093 58 4036ft 123kts
07-Nov-18 13:14 34.199076 -118.619612 79 4039ft 125kts
07-Nov-18 13:15 34.200998 -118.577032 87 4039ft 128kts
07-Nov-18 13:16 34.200177 -118.534388 90 3433ft 124kts
07-Nov-18 13:17 34.199704 -118.495211 89 2813ft 112kts
07-Nov-18 13:18 34.199292 -118.458900 89 2223ft 105kts
07-Nov-18 13:19 34.198527 -118.420879 89 1604ft 103kts
07-Nov-18 13:20 34.198191 -118.390282 92 1127ft 79kts
07-Nov-18 13:21 34.197870 -118.366507 89 726ft 51kts
07-Nov-18 13:22 34.196949 -118.360331 187 713ft 4kts
07-Nov-18 13:23 34.195582 -118.360036 103 709ft 0kts
07-Nov-18 13:24 34.195582 -118.360036 103 709ft 0kts
07-Nov-18 13:25 34.195582 -118.360036 103 709ft 0kts
07-Nov-18 13:26 34.195582 -118.360036 103 709ft 0kts
07-Nov-18 13:27 34.195582 -118.360036 103 709ft 0kts
07-Nov-18 13:28 34.195582 -118.360036 103 709ft 0kts
07-Nov-18 13:29 34.195582 -118.360036 103 709ft 0kts
07-Nov-18 13:30 34.195582 -118.360036 103 709ft 0kts
07-Nov-18 13:31 34.195582 -118.360036 103 709ft 0kts
07-Nov-18 13:32 34.195582 -118.360036 103 709ft 0kts
07-Nov-18 13:33 34.195582 -118.360036 103 709ft 0kts
07-Nov-18 13:34 34.195582 -118.360036 103 709ft 0kts
07-Nov-18 13:35 34.195582 -118.360036 103 709ft 0kts
07-Nov-18 13:36 34.195582 -118.360036 103 709ft 0kts

Navigation Log

Ident Type
1. KSNA Airport
2. SLI Navaid
3. POPPR Fix
4. SMO Navaid
5. SILEX Fix
6. KBUR Airport